sensor_id;sensor_type;location;lat;lon;timestamp;P1;durP1;ratioP1;P2;durP2;ratioP2
77004;SDS011;67261;53.132;18.006;2023-04-01T00:00:52;16.60;;;10.30;;
77004;SDS011;67261;53.132;18.006;2023-04-01T00:03:21;17.30;;;11.50;;
77004;SDS011;67261;53.132;18.006;2023-04-01T00:05:49;17.10;;;10.50;;
77004;SDS011;67261;53.132;18.006;2023-04-01T00:08:16;17.60;;;10.00;;
77004;SDS011;67261;53.132;18.006;2023-04-01T00:10:46;14.90;;;8.80;;
77004;SDS011;67261;53.132;18.006;2023-04-01T00:13:16;14.30;;;8.90;;
77004;SDS011;67261;53.132;18.006;2023-04-01T00:15:44;16.30;;;9.60;;
77004;SDS011;67261;53.132;18.006;2023-04-01T00:18:11;18.60;;;11.70;;
77004;SDS011;67261;53.132;18.006;2023-04-01T00:20:39;24.70;;;15.90;;
77004;SDS011;67261;53.132;18.006;2023-04-01T00:23:09;21.10;;;12.60;;
77004;SDS011;67261;53.132;18.006;2023-04-01T00:25:36;20.00;;;12.10;;
77004;SDS011;67261;53.132;18.006;2023-04-01T00:28:09;22.40;;;12.30;;
77004;SDS011;67261;53.132;18.006;2023-04-01T00:30:36;23.10;;;14.10;;
77004;SDS011;67261;53.132;18.006;2023-04-01T00:33:04;21.30;;;12.60;;
77004;SDS011;67261;53.132;18.006;2023-04-01T00:35:31;19.70;;;11.30;;
77004;SDS011;67261;53.132;18.006;2023-04-01T00:37:58;21.50;;;11.50;;
77004;SDS011;67261;53.132;18.006;2023-04-01T00:40:27;18.40;;;11.30;;
77004;SDS011;67261;53.132;18.006;2023-04-01T00:43:01;21.30;;;11.60;;
77004;SDS011;67261;53.132;18.006;2023-04-01T00:45:34;20.60;;;11.70;;
77004;SDS011;67261;53.132;18.006;2023-04-01T00:48:07;18.40;;;11.10;;
77004;SDS011;67261;53.132;18.006;2023-04-01T00:50:37;20.70;;;11.60;;
77004;SDS011;67261;53.132;18.006;2023-04-01T00:55:39;20.10;;;11.30;;
77004;SDS011;67261;53.132;18.006;2023-04-01T00:58:11;20.30;;;11.20;;
77004;SDS011;67261;53.132;18.006;2023-04-01T01:00:45;19.90;;;12.30;;
77004;SDS011;67261;53.132;18.006;2023-04-01T01:03:14;17.60;;;10.50;;
77004;SDS011;67261;53.132;18.006;2023-04-01T01:11:22;20.00;;;11.40;;
77004;SDS011;67261;53.132;18.006;2023-04-01T01:22:22;21.40;;;14.90;;
77004;SDS011;67261;53.132;18.006;2023-04-01T01:28:14;25.10;;;15.20;;
77004;SDS011;67261;53.132;18.006;2023-04-01T01:31:24;20.70;;;12.10;;
77004;SDS011;67261;53.132;18.006;2023-04-01T01:34:09;24.40;;;14.00;;
77004;SDS011;67261;53.132;18.006;2023-04-01T01:36:43;23.70;;;13.80;;
77004;SDS011;67261;53.132;18.006;2023-04-01T01:39:15;23.20;;;14.00;;
77004;SDS011;67261;53.132;18.006;2023-04-01T01:41:48;22.40;;;13.00;;
77004;SDS011;67261;53.132;18.006;2023-04-01T01:44:16;22.00;;;12.20;;
77004;SDS011;67261;53.132;18.006;2023-04-01T01:46:47;18.80;;;12.70;;
77004;SDS011;67261;53.132;18.006;2023-04-01T01:49:15;16.80;;;10.90;;
77004;SDS011;67261;53.132;18.006;2023-04-01T01:51:45;17.30;;;11.10;;
77004;SDS011;67261;53.132;18.006;2023-04-01T01:54:16;15.60;;;10.10;;
77004;SDS011;67261;53.132;18.006;2023-04-01T01:56:51;16.80;;;10.40;;
77004;SDS011;67261;53.132;18.006;2023-04-01T01:59:23;19.30;;;10.90;;
77004;SDS011;67261;53.132;18.006;2023-04-01T02:01:55;17.90;;;12.00;;
77004;SDS011;67261;53.132;18.006;2023-04-01T02:04:24;17.50;;;11.10;;
77004;SDS011;67261;53.132;18.006;2023-04-01T02:06:56;14.20;;;9.90;;
77004;SDS011;67261;53.132;18.006;2023-04-01T02:09:28;15.30;;;10.20;;
77004;SDS011;67261;53.132;18.006;2023-04-01T02:12:00;15.20;;;9.20;;
77004;SDS011;67261;53.132;18.006;2023-04-01T02:14:38;14.70;;;10.20;;
77004;SDS011;67261;53.132;18.006;2023-04-01T02:17:29;11.40;;;6.20;;
77004;SDS011;67261;53.132;18.006;2023-04-01T02:20:13;14.80;;;9.60;;
77004;SDS011;67261;53.132;18.006;2023-04-01T02:22:53;10.80;;;5.70;;
77004;SDS011;67261;53.132;18.006;2023-04-01T02:25:25;15.20;;;9.40;;
77004;SDS011;67261;53.132;18.006;2023-04-01T02:27:56;15.60;;;9.50;;
77004;SDS011;67261;53.132;18.006;2023-04-01T02:30:26;14.80;;;9.00;;
77004;SDS011;67261;53.132;18.006;2023-04-01T02:32:55;12.00;;;7.70;;
77004;SDS011;67261;53.132;18.006;2023-04-01T02:35:26;14.10;;;8.70;;
77004;SDS011;67261;53.132;18.006;2023-04-01T02:37:54;12.00;;;7.70;;
77004;SDS011;67261;53.132;18.006;2023-04-01T02:40:22;12.20;;;7.70;;
77004;SDS011;67261;53.132;18.006;2023-04-01T02:42:52;12.20;;;8.40;;
77004;SDS011;67261;53.132;18.006;2023-04-01T02:45:21;10.90;;;7.30;;
77004;SDS011;67261;53.132;18.006;2023-04-01T02:47:51;11.40;;;7.30;;
77004;SDS011;67261;53.132;18.006;2023-04-01T02:50:18;11.50;;;7.10;;
77004;SDS011;67261;53.132;18.006;2023-04-01T02:52:45;11.00;;;7.40;;
77004;SDS011;67261;53.132;18.006;2023-04-01T02:55:15;12.20;;;7.40;;
77004;SDS011;67261;53.132;18.006;2023-04-01T03:00:13;11.50;;;7.00;;
77004;SDS011;67261;53.132;18.006;2023-04-01T03:02:41;12.30;;;8.10;;
77004;SDS011;67261;53.132;18.006;2023-04-01T03:05:08;12.60;;;7.60;;
77004;SDS011;67261;53.132;18.006;2023-04-01T03:07:35;12.90;;;8.00;;
77004;SDS011;67261;53.132;18.006;2023-04-01T03:10:03;14.30;;;9.30;;
77004;SDS011;67261;53.132;18.006;2023-04-01T03:12:31;11.90;;;7.40;;
77004;SDS011;67261;53.132;18.006;2023-04-01T03:15:00;13.00;;;8.90;;
77004;SDS011;67261;53.132;18.006;2023-04-01T03:19:58;14.50;;;8.50;;
77004;SDS011;67261;53.132;18.006;2023-04-01T03:22:38;11.60;;;6.70;;
77004;SDS011;67261;53.132;18.006;2023-04-01T03:25:22;13.30;;;7.60;;
77004;SDS011;67261;53.132;18.006;2023-04-01T03:28:14;14.10;;;7.40;;
77004;SDS011;67261;53.132;18.006;2023-04-01T03:30:53;12.70;;;6.70;;
77004;SDS011;67261;53.132;18.006;2023-04-01T03:33:22;13.50;;;7.20;;
77004;SDS011;67261;53.132;18.006;2023-04-01T03:35:58;12.50;;;6.70;;
77004;SDS011;67261;53.132;18.006;2023-04-01T03:38:36;15.30;;;8.30;;
77004;SDS011;67261;53.132;18.006;2023-04-01T03:41:05;13.60;;;6.60;;
77004;SDS011;67261;53.132;18.006;2023-04-01T03:43:40;14.00;;;8.00;;
77004;SDS011;67261;53.132;18.006;2023-04-01T03:46:17;14.60;;;6.70;;
77004;SDS011;67261;53.132;18.006;2023-04-01T03:48:47;11.20;;;5.50;;
77004;SDS011;67261;53.132;18.006;2023-04-01T03:51:17;14.90;;;7.30;;
77004;SDS011;67261;53.132;18.006;2023-04-01T03:53:44;13.00;;;6.50;;
77004;SDS011;67261;53.132;18.006;2023-04-01T03:58:41;14.20;;;6.60;;
77004;SDS011;67261;53.132;18.006;2023-04-01T04:01:20;15.30;;;7.60;;
77004;SDS011;67261;53.132;18.006;2023-04-01T04:03:49;16.30;;;7.70;;
77004;SDS011;67261;53.132;18.006;2023-04-01T04:06:17;13.10;;;5.80;;
77004;SDS011;67261;53.132;18.006;2023-04-01T04:08:45;14.80;;;6.80;;
77004;SDS011;67261;53.132;18.006;2023-04-01T04:11:15;11.60;;;5.70;;
77004;SDS011;67261;53.132;18.006;2023-04-01T04:13:43;12.70;;;5.80;;
77004;SDS011;67261;53.132;18.006;2023-04-01T04:16:11;13.50;;;7.10;;
77004;SDS011;67261;53.132;18.006;2023-04-01T04:18:41;14.10;;;6.40;;
77004;SDS011;67261;53.132;18.006;2023-04-01T04:21:15;16.50;;;7.50;;
77004;SDS011;67261;53.132;18.006;2023-04-01T04:23:44;12.30;;;5.70;;
77004;SDS011;67261;53.132;18.006;2023-04-01T04:26:21;17.40;;;7.40;;
77004;SDS011;67261;53.132;18.006;2023-04-01T04:28:54;13.60;;;6.80;;
77004;SDS011;67261;53.132;18.006;2023-04-01T04:31:22;15.30;;;7.40;;
77004;SDS011;67261;53.132;18.006;2023-04-01T04:33:53;16.80;;;8.20;;
77004;SDS011;67261;53.132;18.006;2023-04-01T04:36:24;18.60;;;8.50;;
77004;SDS011;67261;53.132;18.006;2023-04-01T04:38:51;19.50;;;9.10;;
77004;SDS011;67261;53.132;18.006;2023-04-01T04:41:20;19.90;;;8.90;;
77004;SDS011;67261;53.132;18.006;2023-04-01T04:43:54;17.40;;;8.40;;
77004;SDS011;67261;53.132;18.006;2023-04-01T04:46:23;22.10;;;9.40;;
77004;SDS011;67261;53.132;18.006;2023-04-01T04:48:56;22.60;;;10.40;;
77004;SDS011;67261;53.132;18.006;2023-04-01T04:51:24;21.10;;;10.00;;
77004;SDS011;67261;53.132;18.006;2023-04-01T04:53:51;22.00;;;8.80;;
77004;SDS011;67261;53.132;18.006;2023-04-01T04:56:19;19.60;;;9.60;;
77004;SDS011;67261;53.132;18.006;2023-04-01T04:58:54;21.60;;;10.00;;
77004;SDS011;67261;53.132;18.006;2023-04-01T05:01:25;20.10;;;9.80;;
77004;SDS011;67261;53.132;18.006;2023-04-01T05:03:52;22.70;;;10.00;;
77004;SDS011;67261;53.132;18.006;2023-04-01T05:06:22;21.50;;;9.10;;
77004;SDS011;67261;53.132;18.006;2023-04-01T05:08:50;22.40;;;9.70;;
77004;SDS011;67261;53.132;18.006;2023-04-01T05:11:18;20.70;;;9.10;;
77004;SDS011;67261;53.132;18.006;2023-04-01T05:13:46;24.60;;;11.60;;
77004;SDS011;67261;53.132;18.006;2023-04-01T05:16:14;20.20;;;9.20;;
77004;SDS011;67261;53.132;18.006;2023-04-01T05:18:45;26.50;;;11.10;;
77004;SDS011;67261;53.132;18.006;2023-04-01T05:21:15;19.50;;;9.30;;
77004;SDS011;67261;53.132;18.006;2023-04-01T05:23:43;25.30;;;11.00;;
77004;SDS011;67261;53.132;18.006;2023-04-01T05:26:11;22.20;;;10.50;;
77004;SDS011;67261;53.132;18.006;2023-04-01T05:28:46;25.40;;;11.70;;
77004;SDS011;67261;53.132;18.006;2023-04-01T05:31:12;22.70;;;10.40;;
77004;SDS011;67261;53.132;18.006;2023-04-01T05:33:45;25.40;;;12.40;;
77004;SDS011;67261;53.132;18.006;2023-04-01T05:36:15;18.10;;;8.00;;
77004;SDS011;67261;53.132;18.006;2023-04-01T05:38:44;24.20;;;11.80;;
77004;SDS011;67261;53.132;18.006;2023-04-01T05:41:17;19.10;;;8.50;;
77004;SDS011;67261;53.132;18.006;2023-04-01T05:43:46;25.80;;;12.80;;
77004;SDS011;67261;53.132;18.006;2023-04-01T05:46:46;20.50;;;9.70;;
77004;SDS011;67261;53.132;18.006;2023-04-01T05:49:23;26.20;;;11.40;;
77004;SDS011;67261;53.132;18.006;2023-04-01T05:51:50;29.30;;;13.10;;
77004;SDS011;67261;53.132;18.006;2023-04-01T05:54:18;21.30;;;11.00;;
77004;SDS011;67261;53.132;18.006;2023-04-01T05:56:46;21.10;;;11.40;;
77004;SDS011;67261;53.132;18.006;2023-04-01T05:59:13;19.90;;;10.40;;
77004;SDS011;67261;53.132;18.006;2023-04-01T06:01:41;18.50;;;9.40;;
77004;SDS011;67261;53.132;18.006;2023-04-01T06:04:11;21.60;;;10.90;;
77004;SDS011;67261;53.132;18.006;2023-04-01T06:06:41;21.10;;;11.50;;
77004;SDS011;67261;53.132;18.006;2023-04-01T06:09:16;20.50;;;11.40;;
77004;SDS011;67261;53.132;18.006;2023-04-01T06:12:01;19.10;;;9.90;;
77004;SDS011;67261;53.132;18.006;2023-04-01T06:23:41;17.40;;;8.80;;
77004;SDS011;67261;53.132;18.006;2023-04-01T06:26:30;19.40;;;9.90;;
77004;SDS011;67261;53.132;18.006;2023-04-01T06:32:26;14.50;;;8.00;;
77004;SDS011;67261;53.132;18.006;2023-04-01T06:38:49;16.80;;;9.30;;
77004;SDS011;67261;53.132;18.006;2023-04-01T06:50:40;12.00;;;6.90;;
77004;SDS011;67261;53.132;18.006;2023-04-01T06:53:39;12.20;;;6.20;;
77004;SDS011;67261;53.132;18.006;2023-04-01T06:56:30;12.30;;;7.60;;
77004;SDS011;67261;53.132;18.006;2023-04-01T06:59:06;13.10;;;7.50;;
77004;SDS011;67261;53.132;18.006;2023-04-01T07:01:52;11.20;;;6.30;;
77004;SDS011;67261;53.132;18.006;2023-04-01T07:04:35;14.50;;;8.40;;
77004;SDS011;67261;53.132;18.006;2023-04-01T07:07:27;16.10;;;9.20;;
77004;SDS011;67261;53.132;18.006;2023-04-01T07:10:05;16.90;;;9.40;;
77004;SDS011;67261;53.132;18.006;2023-04-01T07:12:57;16.00;;;9.20;;
77004;SDS011;67261;53.132;18.006;2023-04-01T07:21:29;15.50;;;9.50;;
77004;SDS011;67261;53.132;18.006;2023-04-01T07:24:08;13.60;;;8.90;;
77004;SDS011;67261;53.132;18.006;2023-04-01T07:26:46;15.30;;;8.70;;
77004;SDS011;67261;53.132;18.006;2023-04-01T07:29:23;15.10;;;8.40;;
77004;SDS011;67261;53.132;18.006;2023-04-01T07:43:25;16.00;;;8.80;;
77004;SDS011;67261;53.132;18.006;2023-04-01T07:51:44;19.90;;;10.50;;
77004;SDS011;67261;53.132;18.006;2023-04-01T08:00:03;21.10;;;10.90;;
77004;SDS011;67261;53.132;18.006;2023-04-01T08:08:15;22.60;;;12.50;;
77004;SDS011;67261;53.132;18.006;2023-04-01T08:11:50;19.20;;;12.20;;
77004;SDS011;67261;53.132;18.006;2023-04-01T08:18:08;16.60;;;11.00;;
77004;SDS011;67261;53.132;18.006;2023-04-01T08:20:51;15.70;;;9.80;;
77004;SDS011;67261;53.132;18.006;2023-04-01T08:23:42;15.00;;;7.60;;
77004;SDS011;67261;53.132;18.006;2023-04-01T08:29:00;18.10;;;10.30;;
77004;SDS011;67261;53.132;18.006;2023-04-01T08:34:40;13.90;;;7.70;;
77004;SDS011;67261;53.132;18.006;2023-04-01T08:39:55;9.40;;;6.30;;
77004;SDS011;67261;53.132;18.006;2023-04-01T08:51:04;12.30;;;6.30;;
77004;SDS011;67261;53.132;18.006;2023-04-01T08:53:42;9.00;;;5.00;;
77004;SDS011;67261;53.132;18.006;2023-04-01T08:56:50;7.20;;;4.30;;
77004;SDS011;67261;53.132;18.006;2023-04-01T08:59:32;6.10;;;3.50;;
77004;SDS011;67261;53.132;18.006;2023-04-01T09:20:50;6.00;;;3.50;;
77004;SDS011;67261;53.132;18.006;2023-04-01T09:23:38;6.40;;;3.70;;
77004;SDS011;67261;53.132;18.006;2023-04-01T09:29:38;6.80;;;4.20;;
77004;SDS011;67261;53.132;18.006;2023-04-01T09:38:20;5.60;;;3.10;;
77004;SDS011;67261;53.132;18.006;2023-04-01T09:41:02;7.10;;;3.90;;
77004;SDS011;67261;53.132;18.006;2023-04-01T09:44:14;9.00;;;5.20;;
77004;SDS011;67261;53.132;18.006;2023-04-01T09:49:57;7.60;;;5.80;;
77004;SDS011;67261;53.132;18.006;2023-04-01T09:52:31;6.30;;;3.90;;
77004;SDS011;67261;53.132;18.006;2023-04-01T10:23:27;6.30;;;3.80;;
77004;SDS011;67261;53.132;18.006;2023-04-01T10:55:00;6.50;;;4.40;;
77004;SDS011;67261;53.132;18.006;2023-04-01T11:23:24;7.10;;;3.70;;
77004;SDS011;67261;53.132;18.006;2023-04-01T11:37:46;7.00;;;4.70;;
77004;SDS011;67261;53.132;18.006;2023-04-01T11:44:26;9.20;;;4.80;;
77004;SDS011;67261;53.132;18.006;2023-04-01T11:47:19;8.20;;;4.30;;
77004;SDS011;67261;53.132;18.006;2023-04-01T11:50:23;4.90;;;3.30;;
77004;SDS011;67261;53.132;18.006;2023-04-01T12:03:26;8.00;;;5.00;;
77004;SDS011;67261;53.132;18.006;2023-04-01T12:09:16;11.70;;;7.10;;
77004;SDS011;67261;53.132;18.006;2023-04-01T12:12:11;7.60;;;4.70;;
77004;SDS011;67261;53.132;18.006;2023-04-01T12:15:23;7.60;;;4.40;;
77004;SDS011;67261;53.132;18.006;2023-04-01T12:18:22;7.90;;;4.70;;
77004;SDS011;67261;53.132;18.006;2023-04-01T12:42:14;19.10;;;11.10;;
77004;SDS011;67261;53.132;18.006;2023-04-01T12:45:49;14.70;;;7.40;;
77004;SDS011;67261;53.132;18.006;2023-04-01T13:00:56;5.90;;;3.10;;
77004;SDS011;67261;53.132;18.006;2023-04-01T13:03:36;6.70;;;3.60;;
77004;SDS011;67261;53.132;18.006;2023-04-01T13:09:01;11.20;;;4.50;;
77004;SDS011;67261;53.132;18.006;2023-04-01T13:24:14;9.40;;;5.20;;
77004;SDS011;67261;53.132;18.006;2023-04-01T13:27:01;9.50;;;4.90;;
77004;SDS011;67261;53.132;18.006;2023-04-01T13:52:25;4.20;;;2.30;;
77004;SDS011;67261;53.132;18.006;2023-04-01T14:03:16;5.80;;;3.30;;
77004;SDS011;67261;53.132;18.006;2023-04-01T14:06:27;4.80;;;2.60;;
77004;SDS011;67261;53.132;18.006;2023-04-01T14:24:21;7.10;;;3.30;;
77004;SDS011;67261;53.132;18.006;2023-04-01T14:29:54;6.20;;;4.20;;
77004;SDS011;67261;53.132;18.006;2023-04-01T14:40:44;5.10;;;2.30;;
77004;SDS011;67261;53.132;18.006;2023-04-01T14:43:25;6.30;;;3.90;;
77004;SDS011;67261;53.132;18.006;2023-04-01T14:49:47;6.20;;;4.20;;
77004;SDS011;67261;53.132;18.006;2023-04-01T14:52:27;6.50;;;3.60;;
77004;SDS011;67261;53.132;18.006;2023-04-01T14:55:01;5.50;;;3.30;;
77004;SDS011;67261;53.132;18.006;2023-04-01T14:57:44;8.30;;;4.10;;
77004;SDS011;67261;53.132;18.006;2023-04-01T15:00:25;6.00;;;3.30;;
77004;SDS011;67261;53.132;18.006;2023-04-01T15:08:29;5.50;;;2.90;;
77004;SDS011;67261;53.132;18.006;2023-04-01T15:14:50;5.20;;;2.90;;
77004;SDS011;67261;53.132;18.006;2023-04-01T15:20:25;7.90;;;5.00;;
77004;SDS011;67261;53.132;18.006;2023-04-01T15:23:34;5.90;;;3.20;;
77004;SDS011;67261;53.132;18.006;2023-04-01T15:26:13;4.70;;;3.00;;
77004;SDS011;67261;53.132;18.006;2023-04-01T15:34:26;7.20;;;3.70;;
77004;SDS011;67261;53.132;18.006;2023-04-01T15:37:18;7.80;;;5.40;;
77004;SDS011;67261;53.132;18.006;2023-04-01T15:39:57;6.30;;;3.40;;
77004;SDS011;67261;53.132;18.006;2023-04-01T15:45:10;5.60;;;3.70;;
77004;SDS011;67261;53.132;18.006;2023-04-01T15:49:49;5.00;;;2.70;;
77004;SDS011;67261;53.132;18.006;2023-04-01T15:55:37;6.90;;;3.60;;
77004;SDS011;67261;53.132;18.006;2023-04-01T16:02:07;6.40;;;3.40;;
77004;SDS011;67261;53.132;18.006;2023-04-01T16:07:27;10.00;;;4.90;;
77004;SDS011;67261;53.132;18.006;2023-04-01T16:25:14;7.00;;;3.20;;
77004;SDS011;67261;53.132;18.006;2023-04-01T16:30:37;6.00;;;3.50;;
77004;SDS011;67261;53.132;18.006;2023-04-01T16:33:21;6.60;;;3.80;;
77004;SDS011;67261;53.132;18.006;2023-04-01T16:49:23;5.70;;;2.60;;
77004;SDS011;67261;53.132;18.006;2023-04-01T16:57:42;9.20;;;4.80;;
77004;SDS011;67261;53.132;18.006;2023-04-01T17:00:16;7.60;;;4.10;;
77004;SDS011;67261;53.132;18.006;2023-04-01T17:02:58;5.20;;;3.00;;
77004;SDS011;67261;53.132;18.006;2023-04-01T17:08:40;6.90;;;3.90;;
77004;SDS011;67261;53.132;18.006;2023-04-01T17:11:24;8.90;;;4.40;;
77004;SDS011;67261;53.132;18.006;2023-04-01T17:14:15;6.40;;;3.00;;
77004;SDS011;67261;53.132;18.006;2023-04-01T17:16:53;6.00;;;3.00;;
77004;SDS011;67261;53.132;18.006;2023-04-01T17:22:22;7.80;;;3.10;;
77004;SDS011;67261;53.132;18.006;2023-04-01T17:25:25;15.20;;;7.80;;
77004;SDS011;67261;53.132;18.006;2023-04-01T17:45:45;4.50;;;2.70;;
77004;SDS011;67261;53.132;18.006;2023-04-01T17:53:47;8.40;;;4.00;;
77004;SDS011;67261;53.132;18.006;2023-04-01T17:56:34;4.70;;;2.20;;
77004;SDS011;67261;53.132;18.006;2023-04-01T17:59:12;11.20;;;6.10;;
77004;SDS011;67261;53.132;18.006;2023-04-01T18:24:11;7.60;;;3.60;;
77004;SDS011;67261;53.132;18.006;2023-04-01T18:29:34;6.80;;;4.30;;
77004;SDS011;67261;53.132;18.006;2023-04-01T18:51:47;9.70;;;5.80;;
77004;SDS011;67261;53.132;18.006;2023-04-01T18:54:40;9.50;;;4.90;;
77004;SDS011;67261;53.132;18.006;2023-04-01T18:57:16;7.80;;;4.00;;
77004;SDS011;67261;53.132;18.006;2023-04-01T18:59:50;11.00;;;6.50;;
77004;SDS011;67261;53.132;18.006;2023-04-01T19:02:25;12.40;;;5.30;;
77004;SDS011;67261;53.132;18.006;2023-04-01T19:05:12;10.20;;;5.40;;
77004;SDS011;67261;53.132;18.006;2023-04-01T19:07:49;9.40;;;4.40;;
77004;SDS011;67261;53.132;18.006;2023-04-01T19:10:23;9.50;;;4.70;;
77004;SDS011;67261;53.132;18.006;2023-04-01T19:15:46;9.20;;;5.00;;
77004;SDS011;67261;53.132;18.006;2023-04-01T19:21:19;9.20;;;4.90;;
77004;SDS011;67261;53.132;18.006;2023-04-01T19:24:49;8.80;;;4.50;;
77004;SDS011;67261;53.132;18.006;2023-04-01T19:38:40;10.60;;;5.00;;
77004;SDS011;67261;53.132;18.006;2023-04-01T19:56:17;9.20;;;4.80;;
77004;SDS011;67261;53.132;18.006;2023-04-01T19:58:50;8.60;;;4.70;;
77004;SDS011;67261;53.132;18.006;2023-04-01T20:01:22;8.50;;;4.50;;
77004;SDS011;67261;53.132;18.006;2023-04-01T20:04:02;8.50;;;4.30;;
77004;SDS011;67261;53.132;18.006;2023-04-01T20:09:47;11.00;;;5.10;;
77004;SDS011;67261;53.132;18.006;2023-04-01T20:18:21;10.60;;;4.90;;
77004;SDS011;67261;53.132;18.006;2023-04-01T20:23:54;7.90;;;4.30;;
77004;SDS011;67261;53.132;18.006;2023-04-01T20:26:37;9.50;;;5.40;;
77004;SDS011;67261;53.132;18.006;2023-04-01T20:49:15;13.40;;;6.80;;
77004;SDS011;67261;53.132;18.006;2023-04-01T20:52:24;14.20;;;6.40;;
77004;SDS011;67261;53.132;18.006;2023-04-01T20:58:11;9.90;;;4.10;;
77004;SDS011;67261;53.132;18.006;2023-04-01T21:03:54;8.80;;;5.40;;
77004;SDS011;67261;53.132;18.006;2023-04-01T21:10:11;8.60;;;4.80;;
77004;SDS011;67261;53.132;18.006;2023-04-01T21:12:53;6.80;;;4.20;;
77004;SDS011;67261;53.132;18.006;2023-04-01T21:32:53;8.40;;;5.00;;
77004;SDS011;67261;53.132;18.006;2023-04-01T21:35:44;8.80;;;4.80;;
77004;SDS011;67261;53.132;18.006;2023-04-01T21:38:50;6.50;;;3.50;;
77004;SDS011;67261;53.132;18.006;2023-04-01T21:41:34;10.30;;;6.10;;
77004;SDS011;67261;53.132;18.006;2023-04-01T22:07:23;8.50;;;5.10;;
77004;SDS011;67261;53.132;18.006;2023-04-01T22:10:15;8.80;;;4.40;;
77004;SDS011;67261;53.132;18.006;2023-04-01T22:18:42;8.40;;;4.70;;
77004;SDS011;67261;53.132;18.006;2023-04-01T22:21:41;8.40;;;4.40;;
77004;SDS011;67261;53.132;18.006;2023-04-01T22:24:24;10.90;;;5.60;;
77004;SDS011;67261;53.132;18.006;2023-04-01T22:27:14;12.10;;;6.50;;
77004;SDS011;67261;53.132;18.006;2023-04-01T22:33:07;8.20;;;4.60;;
77004;SDS011;67261;53.132;18.006;2023-04-01T22:47:45;7.40;;;3.80;;
77004;SDS011;67261;53.132;18.006;2023-04-01T22:50:36;9.60;;;4.80;;
77004;SDS011;67261;53.132;18.006;2023-04-01T22:55:51;8.10;;;5.20;;
77004;SDS011;67261;53.132;18.006;2023-04-01T22:58:26;9.40;;;5.30;;
77004;SDS011;67261;53.132;18.006;2023-04-01T23:01:01;8.00;;;5.00;;
77004;SDS011;67261;53.132;18.006;2023-04-01T23:03:41;8.80;;;5.70;;
77004;SDS011;67261;53.132;18.006;2023-04-01T23:06:33;10.90;;;5.50;;
77004;SDS011;67261;53.132;18.006;2023-04-01T23:09:13;6.40;;;3.10;;
77004;SDS011;67261;53.132;18.006;2023-04-01T23:11:49;8.40;;;4.60;;
77004;SDS011;67261;53.132;18.006;2023-04-01T23:20:09;7.10;;;3.50;;
77004;SDS011;67261;53.132;18.006;2023-04-01T23:29:04;7.10;;;3.70;;
77004;SDS011;67261;53.132;18.006;2023-04-01T23:31:40;8.50;;;5.30;;
77004;SDS011;67261;53.132;18.006;2023-04-01T23:36:50;7.50;;;3.90;;
77004;SDS011;67261;53.132;18.006;2023-04-01T23:39:25;7.80;;;4.50;;
77004;SDS011;67261;53.132;18.006;2023-04-01T23:41:55;7.00;;;3.90;;
77004;SDS011;67261;53.132;18.006;2023-04-01T23:44:26;10.30;;;5.00;;
77004;SDS011;67261;53.132;18.006;2023-04-01T23:46:58;7.90;;;3.90;;
77004;SDS011;67261;53.132;18.006;2023-04-01T23:49:29;7.20;;;4.40;;
77004;SDS011;67261;53.132;18.006;2023-04-01T23:52:44;7.10;;;3.30;;
77004;SDS011;67261;53.132;18.006;2023-04-01T23:55:12;6.80;;;4.10;;
77004;SDS011;67261;53.132;18.006;2023-04-01T23:58:16;6.80;;;3.90;;
